createdAt,value
2022-10-15T00:00:23.451Z,11.30
2022-10-15T00:02:50.592Z,11.30
2022-10-15T00:05:17.657Z,11.30
2022-10-15T00:07:44.655Z,11.30
2022-10-15T00:10:11.641Z,11.00
2022-10-15T00:12:38.552Z,10.90
2022-10-15T00:15:05.982Z,10.90
2022-10-15T00:17:36.039Z,11.00
2022-10-15T00:20:04.395Z,11.10
2022-10-15T00:22:31.281Z,11.20
2022-10-15T00:24:58.713Z,11.20
2022-10-15T00:27:25.790Z,11.20
2022-10-15T00:29:52.739Z,11.10
2022-10-15T00:32:19.662Z,11.10
2022-10-15T00:34:46.875Z,11.00
2022-10-15T00:37:13.785Z,11.10
2022-10-15T00:39:41.314Z,11.10
2022-10-15T00:42:10.658Z,11.10
2022-10-15T00:44:38.200Z,11.10
2022-10-15T00:47:17.170Z,10.80
2022-10-15T00:50:12.564Z,10.60
2022-10-15T00:53:05.265Z,10.50
2022-10-15T00:55:36.930Z,10.60
2022-10-15T01:00:40.149Z,10.70
2022-10-15T01:03:08.048Z,10.70
2022-10-15T01:05:35.628Z,10.60
2022-10-15T01:08:02.604Z,10.60
2022-10-15T01:10:36.723Z,10.60
2022-10-15T01:13:13.093Z,10.50
2022-10-15T01:15:59.075Z,10.30
2022-10-15T01:18:44.682Z,10.00
2022-10-15T01:21:17.216Z,9.80
2022-10-15T01:24:16.785Z,9.70
2022-10-15T01:27:10.008Z,9.60
2022-10-15T01:29:55.002Z,9.50
2022-10-15T01:33:03.302Z,9.70
2022-10-15T01:35:51.786Z,9.60
2022-10-15T01:38:39.119Z,9.90
2022-10-15T01:41:12.478Z,9.80
2022-10-15T01:43:47.084Z,9.90
2022-10-15T01:46:36.325Z,9.80
2022-10-15T01:49:05.504Z,9.70
2022-10-15T01:51:34.527Z,9.70
2022-10-15T01:54:01.878Z,9.80
2022-10-15T01:56:29.408Z,9.90
2022-10-15T01:58:56.367Z,9.90
2022-10-15T02:01:23.669Z,9.60
2022-10-15T02:03:53.802Z,9.40
2022-10-15T02:06:27.196Z,9.50
2022-10-15T02:09:11.629Z,9.50
2022-10-15T02:11:54.978Z,9.20
2022-10-15T02:14:31.615Z,9.20
2022-10-15T02:17:06.548Z,9.10
2022-10-15T02:19:50.964Z,9.10
2022-10-15T02:22:22.703Z,8.90
2022-10-15T02:25:13.053Z,8.80
2022-10-15T02:27:40.144Z,8.80
2022-10-15T02:30:08.198Z,8.80
2022-10-15T02:32:37.089Z,8.80
2022-10-15T02:35:04.469Z,8.90
2022-10-15T02:37:31.363Z,9.10
2022-10-15T02:39:58.405Z,9.20
2022-10-15T02:42:25.854Z,9.30
2022-10-15T02:44:53.480Z,9.20
2022-10-15T02:47:20.533Z,9.00
2022-10-15T02:49:47.582Z,9.50
2022-10-15T02:52:14.473Z,9.20
2022-10-15T02:54:41.979Z,9.10
2022-10-15T02:57:08.881Z,9.20
2022-10-15T02:59:36.187Z,9.10
2022-10-15T03:02:03.164Z,9.30
2022-10-15T03:04:31.404Z,9.20
2022-10-15T03:06:58.965Z,9.30
2022-10-15T03:09:26.101Z,9.00
2022-10-15T03:11:53.075Z,9.30
2022-10-15T03:14:21.170Z,9.20
2022-10-15T03:16:48.191Z,9.40
2022-10-15T03:19:15.185Z,9.50
2022-10-15T03:21:44.752Z,9.60
2022-10-15T03:24:15.165Z,9.60
2022-10-15T03:26:42.866Z,9.60
2022-10-15T03:29:09.812Z,9.50
2022-10-15T03:31:46.014Z,9.40
2022-10-15T03:34:13.168Z,9.20
2022-10-15T03:36:41.095Z,9.10
2022-10-15T03:39:12.089Z,9.00
2022-10-15T03:41:39.685Z,8.80
2022-10-15T03:44:07.509Z,8.80
2022-10-15T03:46:36.829Z,9.20
2022-10-15T03:49:03.895Z,9.20
2022-10-15T03:51:31.663Z,9.20
2022-10-15T03:54:05.601Z,9.10
2022-10-15T03:56:38.458Z,9.10
2022-10-15T03:59:23.477Z,9.20
2022-10-15T04:01:57.538Z,9.40
2022-10-15T04:04:24.620Z,9.40
2022-10-15T04:06:51.857Z,9.30
2022-10-15T04:09:19.798Z,9.20
2022-10-15T04:11:46.778Z,9.20
2022-10-15T04:14:14.346Z,9.20
2022-10-15T04:16:42.597Z,9.00
2022-10-15T04:19:16.298Z,9.20
2022-10-15T04:21:47.237Z,9.20
2022-10-15T04:24:27.597Z,9.40
2022-10-15T04:26:54.580Z,9.30
2022-10-15T04:29:21.586Z,9.30
2022-10-15T04:31:49.192Z,9.00
2022-10-15T04:34:16.964Z,9.00
2022-10-15T04:36:44.296Z,8.90
2022-10-15T04:39:19.023Z,8.80
2022-10-15T04:41:46.454Z,8.80
2022-10-15T04:44:15.605Z,8.90
2022-10-15T04:46:48.701Z,9.10
2022-10-15T04:49:34.012Z,8.90
2022-10-15T04:52:06.663Z,8.90
2022-10-15T04:54:50.242Z,9.10
2022-10-15T04:57:18.513Z,8.90
2022-10-15T04:59:45.638Z,8.90
2022-10-15T05:02:43.149Z,8.70
2022-10-15T05:05:23.326Z,9.00
2022-10-15T05:08:02.928Z,8.90
2022-10-15T05:10:33.601Z,8.70
2022-10-15T05:13:04.519Z,9.00
2022-10-15T05:15:38.309Z,8.80
2022-10-15T05:18:07.920Z,8.90
2022-10-15T05:20:46.018Z,9.10
2022-10-15T05:23:16.904Z,9.20
2022-10-15T05:25:54.034Z,8.90
2022-10-15T05:28:24.103Z,8.70
2022-10-15T05:30:51.192Z,8.70
2022-10-15T05:33:18.233Z,8.60
2022-10-15T05:35:45.306Z,8.70
2022-10-15T05:38:12.299Z,8.90
2022-10-15T05:40:40.065Z,8.60
2022-10-15T05:43:13.664Z,8.70
2022-10-15T05:45:40.829Z,8.70
2022-10-15T05:48:07.927Z,8.90
2022-10-15T05:50:35.850Z,8.80
2022-10-15T05:53:06.218Z,9.10
2022-10-15T05:55:38.789Z,8.90
2022-10-15T05:58:05.780Z,8.90
2022-10-15T06:00:33.336Z,9.00
2022-10-15T06:03:00.244Z,8.90
2022-10-15T06:05:27.148Z,8.80
2022-10-15T06:07:54.348Z,8.90
2022-10-15T06:10:21.264Z,8.80
2022-10-15T06:12:51.520Z,8.70
2022-10-15T06:15:18.948Z,8.50
2022-10-15T06:17:46.086Z,8.40
2022-10-15T06:20:13.186Z,8.70
2022-10-15T06:22:40.207Z,8.60
2022-10-15T06:25:08.354Z,8.30
2022-10-15T06:27:35.519Z,8.30
2022-10-15T06:30:02.481Z,8.60
2022-10-15T06:32:29.411Z,8.60
2022-10-15T06:34:56.386Z,8.50
2022-10-15T06:37:23.514Z,8.60
2022-10-15T06:39:51.313Z,8.60
2022-10-15T06:42:18.281Z,8.80
2022-10-15T06:44:47.831Z,8.70
2022-10-15T06:47:17.112Z,8.80
2022-10-15T06:49:46.085Z,9.30
2022-10-15T06:52:13.149Z,9.60
2022-10-15T06:54:40.227Z,10.00
2022-10-15T06:57:08.050Z,10.20
2022-10-15T06:59:38.550Z,10.50
2022-10-15T07:02:10.160Z,10.70
2022-10-15T07:04:37.058Z,10.90
2022-10-15T07:07:03.960Z,11.00
2022-10-15T07:09:31.173Z,11.20
2022-10-15T07:11:58.069Z,11.30
2022-10-15T07:14:24.941Z,11.50
2022-10-15T07:16:51.879Z,11.60
2022-10-15T07:19:20.543Z,11.80
2022-10-15T07:21:49.256Z,11.80
2022-10-15T07:24:18.193Z,12.00
2022-10-15T07:26:46.999Z,12.10
2022-10-15T07:29:14.332Z,12.20
2022-10-15T07:31:41.330Z,12.40
2022-10-15T07:34:08.441Z,12.60
2022-10-15T07:36:35.318Z,12.70
2022-10-15T07:39:02.217Z,12.80
2022-10-15T07:41:29.169Z,12.90
2022-10-15T07:43:56.997Z,13.00
2022-10-15T07:46:24.186Z,13.10
2022-10-15T07:48:55.255Z,13.20
2022-10-15T07:51:22.221Z,13.50
2022-10-15T07:53:49.204Z,13.60
2022-10-15T07:56:16.329Z,13.80
2022-10-15T07:58:43.309Z,14.00
2022-10-15T08:01:10.853Z,14.20
2022-10-15T08:03:38.130Z,14.30
2022-10-15T08:06:06.255Z,14.50
2022-10-15T08:08:34.138Z,14.60
2022-10-15T08:11:14.376Z,14.80
2022-10-15T08:13:42.448Z,14.90
2022-10-15T08:16:10.996Z,15.10
2022-10-15T08:18:38.424Z,15.30
2022-10-15T08:21:06.737Z,15.40
2022-10-15T08:23:33.955Z,15.40
2022-10-15T08:26:01.125Z,15.60
2022-10-15T08:28:28.777Z,15.60
2022-10-15T08:31:04.336Z,15.60
2022-10-15T08:33:33.619Z,15.60
2022-10-15T08:36:00.868Z,15.70
2022-10-15T08:38:27.830Z,15.70
2022-10-15T08:40:56.110Z,15.80
2022-10-15T08:43:53.435Z,15.70
2022-10-15T08:46:27.178Z,15.90
2022-10-15T08:48:55.245Z,16.10
2022-10-15T08:51:24.146Z,16.30
2022-10-15T08:53:57.211Z,16.30
2022-10-15T08:56:38.262Z,16.50
2022-10-15T08:59:33.679Z,16.60
2022-10-15T09:02:05.027Z,16.70
2022-10-15T09:04:53.056Z,16.60
2022-10-15T09:07:31.049Z,16.40
2022-10-15T09:10:06.568Z,16.50
2022-10-15T09:12:39.508Z,16.40
2022-10-15T09:15:09.202Z,16.60
2022-10-15T09:17:37.507Z,16.60
2022-10-15T09:20:07.730Z,16.60
2022-10-15T09:22:36.112Z,16.60
2022-10-15T09:25:16.583Z,16.60
2022-10-15T09:27:43.541Z,16.60
2022-10-15T09:30:31.008Z,16.50
2022-10-15T09:33:16.472Z,16.50
2022-10-15T09:35:46.490Z,16.40
2022-10-15T09:38:39.093Z,16.50
2022-10-15T09:41:06.207Z,16.50
2022-10-15T09:43:36.342Z,16.60
2022-10-15T09:46:04.365Z,16.60
2022-10-15T09:48:36.351Z,16.70
2022-10-15T09:51:22.758Z,16.60
2022-10-15T09:53:56.971Z,16.50
2022-10-15T09:56:26.841Z,16.60
2022-10-15T09:58:57.718Z,16.70
2022-10-15T10:01:29.177Z,16.60
2022-10-15T10:04:18.958Z,16.70
2022-10-15T10:06:51.538Z,16.80
2022-10-15T10:09:27.303Z,16.80
2022-10-15T10:12:02.372Z,16.80
2022-10-15T10:14:55.317Z,16.60
2022-10-15T10:17:23.511Z,16.40
2022-10-15T10:20:26.465Z,16.40
2022-10-15T10:22:55.430Z,16.40
2022-10-15T10:25:44.497Z,16.60
2022-10-15T10:28:14.242Z,16.80
2022-10-15T10:30:48.515Z,16.90
2022-10-15T10:33:15.753Z,16.90
2022-10-15T10:35:52.808Z,17.10
2022-10-15T10:38:21.270Z,17.00
2022-10-15T10:41:06.919Z,17.20
2022-10-15T10:43:39.037Z,17.20
2022-10-15T10:46:25.327Z,17.10
2022-10-15T10:48:53.030Z,17.00
2022-10-15T10:51:20.813Z,16.80
2022-10-15T10:54:04.597Z,17.00
2022-10-15T10:56:36.684Z,17.10
2022-10-15T10:59:34.914Z,17.40
2022-10-15T11:02:03.737Z,17.40
2022-10-15T11:04:31.924Z,17.20
2022-10-15T11:07:05.260Z,17.20
2022-10-15T11:09:53.761Z,17.20
2022-10-15T11:12:41.393Z,17.10
2022-10-15T11:15:19.956Z,17.30
2022-10-15T11:18:15.438Z,17.30
2022-10-15T11:21:19.694Z,17.40
2022-10-15T11:24:25.998Z,17.60
2022-10-15T11:27:18.611Z,17.70
2022-10-15T11:29:49.434Z,17.70
2022-10-15T11:32:54.959Z,17.40
2022-10-15T11:35:54.390Z,17.40
2022-10-15T11:38:54.829Z,17.10
2022-10-15T11:41:35.557Z,17.00
2022-10-15T11:44:34.742Z,16.80
2022-10-15T11:47:25.250Z,16.80
2022-10-15T11:50:22.361Z,16.80
2022-10-15T11:52:53.473Z,16.70
2022-10-15T11:55:27.298Z,16.60
2022-10-15T11:57:56.600Z,16.70
2022-10-15T12:00:34.048Z,16.90
2022-10-15T12:03:07.682Z,16.80
2022-10-15T12:05:55.849Z,16.80
2022-10-15T12:08:22.759Z,16.90
2022-10-15T12:11:02.012Z,17.10
2022-10-15T12:14:02.799Z,17.20
2022-10-15T12:16:35.795Z,17.10
2022-10-15T12:19:12.148Z,17.10
2022-10-15T12:21:55.138Z,17.00
2022-10-15T12:24:39.683Z,17.10
2022-10-15T12:27:22.218Z,17.30
2022-10-15T12:29:50.196Z,17.30
2022-10-15T12:32:36.978Z,17.30
2022-10-15T12:35:06.359Z,17.30
2022-10-15T12:37:37.065Z,17.30
2022-10-15T12:40:06.018Z,17.10
2022-10-15T12:42:37.193Z,17.00
2022-10-15T12:45:06.548Z,17.10
2022-10-15T12:47:49.857Z,16.90
2022-10-15T12:50:21.077Z,16.90
2022-10-15T12:52:54.595Z,16.90
2022-10-15T12:55:35.500Z,16.90
2022-10-15T12:58:09.557Z,16.90
2022-10-15T13:00:40.782Z,17.00
2022-10-15T13:03:32.483Z,17.10
2022-10-15T13:06:22.322Z,17.10
2022-10-15T13:08:55.397Z,16.90
2022-10-15T13:11:48.087Z,17.00
2022-10-15T13:14:42.884Z,17.20
2022-10-15T13:17:19.983Z,17.20
2022-10-15T13:20:08.086Z,17.30
2022-10-15T13:22:35.815Z,17.40
2022-10-15T13:25:02.945Z,17.30
2022-10-15T13:27:34.697Z,17.20
2022-10-15T13:30:04.100Z,17.20
2022-10-15T13:32:32.185Z,17.30
2022-10-15T13:35:02.975Z,17.50
2022-10-15T13:37:32.638Z,17.50
2022-10-15T13:40:01.802Z,17.60
2022-10-15T13:42:31.861Z,17.60
2022-10-15T13:45:04.509Z,17.40
2022-10-15T13:47:35.788Z,17.30
2022-10-15T13:50:19.965Z,17.40
2022-10-15T13:52:50.002Z,17.40
2022-10-15T13:55:31.031Z,17.40
2022-10-15T13:58:03.584Z,17.50
2022-10-15T14:00:33.112Z,17.50
2022-10-15T14:03:24.741Z,17.40
2022-10-15T14:05:52.971Z,17.60
2022-10-15T14:08:27.499Z,17.60
2022-10-15T14:10:57.645Z,17.60
2022-10-15T14:13:24.939Z,17.70
2022-10-15T14:15:52.120Z,17.70
2022-10-15T14:18:26.578Z,17.60
2022-10-15T14:20:53.542Z,17.70
2022-10-15T14:23:24.612Z,17.70
2022-10-15T14:26:01.968Z,17.70
2022-10-15T14:28:30.659Z,17.70
2022-10-15T14:30:57.987Z,17.70
2022-10-15T14:33:38.097Z,17.70
2022-10-15T14:36:07.035Z,17.70
2022-10-15T14:38:34.094Z,17.50
2022-10-15T14:41:26.960Z,17.30
2022-10-15T14:44:10.246Z,17.30
2022-10-15T14:46:48.970Z,17.20
2022-10-15T14:49:32.318Z,17.20
2022-10-15T14:52:07.064Z,17.20
2022-10-15T14:54:39.792Z,17.10
2022-10-15T14:57:19.467Z,17.10
2022-10-15T14:59:46.338Z,17.10
2022-10-15T15:02:15.236Z,17.00
2022-10-15T15:04:44.322Z,17.00
2022-10-15T15:07:13.331Z,17.00
2022-10-15T15:09:41.918Z,16.90
2022-10-15T15:12:22.876Z,16.80
2022-10-15T15:14:52.665Z,16.80
2022-10-15T15:17:24.152Z,16.70
2022-10-15T15:19:52.192Z,16.70
2022-10-15T15:22:31.334Z,16.60
2022-10-15T15:24:59.144Z,16.50
2022-10-15T15:27:27.838Z,16.60
2022-10-15T15:29:55.049Z,16.60
2022-10-15T15:32:22.391Z,16.50
2022-10-15T15:34:50.104Z,16.40
2022-10-15T15:37:21.751Z,15.60
2022-10-15T15:39:49.201Z,15.00
2022-10-15T15:42:21.193Z,14.60
2022-10-15T15:44:48.191Z,14.20
2022-10-15T15:47:15.247Z,14.10
2022-10-15T15:49:42.243Z,14.00
2022-10-15T15:52:13.893Z,14.00
2022-10-15T15:54:41.114Z,13.90
2022-10-15T15:57:08.094Z,13.90
2022-10-15T15:59:35.212Z,13.90
2022-10-15T16:02:02.170Z,13.80
2022-10-15T16:04:29.130Z,13.80
2022-10-15T16:06:56.153Z,13.90
2022-10-15T16:09:23.668Z,13.90
2022-10-15T16:11:51.014Z,13.80
2022-10-15T16:14:18.035Z,13.90
2022-10-15T16:16:44.983Z,13.90
2022-10-15T16:19:14.209Z,13.90
2022-10-15T16:21:41.164Z,13.90
2022-10-15T16:24:08.175Z,13.90
2022-10-15T16:26:35.127Z,14.00
2022-10-15T16:29:02.174Z,14.00
2022-10-15T16:31:30.276Z,14.00
2022-10-15T16:33:57.562Z,14.00
2022-10-15T16:36:24.635Z,14.00
2022-10-15T16:38:51.876Z,14.00
2022-10-15T16:41:19.582Z,14.00
2022-10-15T16:43:47.402Z,14.00
2022-10-15T16:46:15.366Z,14.00
2022-10-15T16:48:42.544Z,14.00
2022-10-15T16:51:16.267Z,14.00
2022-10-15T16:53:44.555Z,14.10
2022-10-15T16:56:16.582Z,14.10
2022-10-15T16:58:43.612Z,14.20
2022-10-15T17:01:15.132Z,14.20
2022-10-15T17:03:42.176Z,14.20
2022-10-15T17:06:10.971Z,14.20
2022-10-15T17:08:42.876Z,14.20
2022-10-15T17:11:14.862Z,14.30
2022-10-15T17:13:41.839Z,14.40
2022-10-15T17:16:16.390Z,14.50
2022-10-15T17:18:43.804Z,14.50
2022-10-15T17:21:12.096Z,14.60
2022-10-15T17:23:39.284Z,14.60
2022-10-15T17:26:07.746Z,14.50
2022-10-15T17:28:35.013Z,14.40
2022-10-15T17:31:09.112Z,14.30
2022-10-15T17:33:36.776Z,14.20
2022-10-15T17:36:05.005Z,14.10
2022-10-15T17:38:33.249Z,14.00
2022-10-15T17:41:00.351Z,14.10
2022-10-15T17:43:27.432Z,14.20
2022-10-15T17:46:04.896Z,14.20
2022-10-15T17:48:31.927Z,14.30
2022-10-15T17:51:02.504Z,14.30
2022-10-15T17:53:29.932Z,14.30
2022-10-15T17:55:57.045Z,14.30
2022-10-15T17:58:24.629Z,14.40
2022-10-15T18:00:53.282Z,14.40
2022-10-15T18:03:20.675Z,14.40
2022-10-15T18:05:48.419Z,14.50
2022-10-15T18:08:16.126Z,14.50
2022-10-15T18:10:43.036Z,14.50
2022-10-15T18:13:10.056Z,14.60
2022-10-15T18:15:38.784Z,14.60
2022-10-15T18:18:06.011Z,14.60
2022-10-15T18:20:33.042Z,14.60
2022-10-15T18:22:59.967Z,14.70
2022-10-15T18:25:30.460Z,14.70
2022-10-15T18:27:57.414Z,14.70
2022-10-15T18:30:24.306Z,14.70
2022-10-15T18:32:53.244Z,14.60
2022-10-15T18:35:22.703Z,14.50
2022-10-15T18:37:50.912Z,14.50
2022-10-15T18:40:18.204Z,14.50
2022-10-15T18:42:47.724Z,14.40
2022-10-15T18:45:19.935Z,14.30
2022-10-15T18:47:46.923Z,14.30
2022-10-15T18:50:13.837Z,14.20
2022-10-15T18:52:40.862Z,14.20
2022-10-15T18:55:08.563Z,14.30
2022-10-15T18:57:39.667Z,14.30
2022-10-15T19:00:07.194Z,14.20
2022-10-15T19:02:34.159Z,14.20
2022-10-15T19:05:01.075Z,14.20
2022-10-15T19:07:31.567Z,14.10
2022-10-15T19:09:59.691Z,14.10
2022-10-15T19:12:27.456Z,14.10
2022-10-15T19:14:54.708Z,14.10
2022-10-15T19:17:21.667Z,14.00
2022-10-15T19:19:50.298Z,14.00
2022-10-15T19:22:17.948Z,14.00
2022-10-15T19:24:44.925Z,13.90
2022-10-15T19:27:11.879Z,13.90
2022-10-15T19:29:39.403Z,13.90
2022-10-15T19:32:06.343Z,13.80
2022-10-15T19:34:35.331Z,13.80
2022-10-15T19:37:02.304Z,13.70
2022-10-15T19:39:32.112Z,13.60
2022-10-15T19:41:59.212Z,13.60
2022-10-15T19:44:27.724Z,13.60
2022-10-15T19:46:57.971Z,13.60
2022-10-15T19:49:25.367Z,13.50
2022-10-15T19:51:52.384Z,13.50
2022-10-15T19:54:19.352Z,13.50
2022-10-15T19:56:46.524Z,13.40
2022-10-15T19:59:13.670Z,13.40
2022-10-15T20:01:40.778Z,13.40
2022-10-15T20:04:07.702Z,13.40
2022-10-15T20:06:35.866Z,13.40
2022-10-15T20:09:03.246Z,13.40
2022-10-15T20:11:30.191Z,13.40
2022-10-15T20:13:58.993Z,13.40
2022-10-15T20:16:27.609Z,13.40
2022-10-15T20:18:58.596Z,13.30
2022-10-15T20:21:25.578Z,13.30
2022-10-15T20:23:52.560Z,13.40
2022-10-15T20:26:19.435Z,13.30
2022-10-15T20:28:46.874Z,13.30
2022-10-15T20:31:20.679Z,13.30
2022-10-15T20:33:49.324Z,13.30
2022-10-15T20:36:22.676Z,13.30
2022-10-15T20:38:51.173Z,13.30
2022-10-15T20:41:18.467Z,13.30
2022-10-15T20:43:45.821Z,13.30
2022-10-15T20:46:18.548Z,13.30
2022-10-15T20:48:45.701Z,13.30
2022-10-15T20:51:13.625Z,13.30
2022-10-15T20:53:41.009Z,13.30
2022-10-15T20:56:08.125Z,13.30
2022-10-15T20:58:35.068Z,13.30
2022-10-15T21:01:02.829Z,13.30
2022-10-15T21:03:30.923Z,13.30
2022-10-15T21:05:57.929Z,13.30
2022-10-15T21:08:25.419Z,13.30
2022-10-15T21:10:52.358Z,13.40
2022-10-15T21:13:20.259Z,13.50
2022-10-15T21:15:47.165Z,13.50
2022-10-15T21:18:15.647Z,13.50
2022-10-15T21:20:42.765Z,13.50
2022-10-15T21:23:09.706Z,13.50
2022-10-15T21:25:36.597Z,13.40
2022-10-15T21:28:03.523Z,13.50
2022-10-15T21:30:30.374Z,13.50
2022-10-15T21:32:57.413Z,13.50
2022-10-15T21:35:24.738Z,13.50
2022-10-15T21:37:51.851Z,13.50
2022-10-15T21:40:18.848Z,13.50
2022-10-15T21:42:45.826Z,13.50
2022-10-15T21:45:12.820Z,13.60
2022-10-15T21:47:39.957Z,13.50
2022-10-15T21:50:07.061Z,13.60
2022-10-15T21:52:33.949Z,13.60
2022-10-15T21:55:00.861Z,13.60
2022-10-15T21:57:28.158Z,13.60
2022-10-15T21:59:55.246Z,13.60
2022-10-15T22:02:22.144Z,13.60
2022-10-15T22:04:49.049Z,13.60
2022-10-15T22:07:15.994Z,13.60
2022-10-15T22:09:42.942Z,13.60
2022-10-15T22:12:09.837Z,13.60
2022-10-15T22:14:36.743Z,13.60
2022-10-15T22:17:03.832Z,13.60
2022-10-15T22:19:30.721Z,13.60
2022-10-15T22:21:57.658Z,13.60
2022-10-15T22:24:24.535Z,13.60
2022-10-15T22:26:52.492Z,13.60
2022-10-15T22:29:24.156Z,13.60
2022-10-15T22:31:51.641Z,13.60
2022-10-15T22:34:19.037Z,13.60
2022-10-15T22:36:46.197Z,13.60
2022-10-15T22:39:14.111Z,13.50
2022-10-15T22:41:42.251Z,13.60
2022-10-15T22:44:10.300Z,13.60
2022-10-15T22:46:37.801Z,13.60
2022-10-15T22:49:05.602Z,13.60
2022-10-15T22:51:32.745Z,13.50
2022-10-15T22:54:00.335Z,13.50
2022-10-15T22:56:28.974Z,13.50
2022-10-15T22:58:57.139Z,13.50
2022-10-15T23:01:28.714Z,13.50
2022-10-15T23:03:58.000Z,13.50
2022-10-15T23:06:25.135Z,13.50
2022-10-15T23:08:52.394Z,13.50
2022-10-15T23:11:21.530Z,13.50
2022-10-15T23:13:48.707Z,13.50
2022-10-15T23:16:20.728Z,13.50
2022-10-15T23:18:51.380Z,13.50
2022-10-15T23:21:19.653Z,13.50
2022-10-15T23:23:46.966Z,13.50
2022-10-15T23:26:15.039Z,13.60
2022-10-15T23:28:43.244Z,13.60
2022-10-15T23:31:20.319Z,13.60
2022-10-15T23:33:47.348Z,13.70
2022-10-15T23:36:14.645Z,13.70
2022-10-15T23:38:41.804Z,13.70
2022-10-15T23:41:09.024Z,13.60
2022-10-15T23:43:36.131Z,13.60
2022-10-15T23:46:03.257Z,13.60
2022-10-15T23:48:30.153Z,13.60
2022-10-15T23:51:00.920Z,13.50
2022-10-15T23:53:31.934Z,13.50
2022-10-15T23:56:01.962Z,13.50
2022-10-15T23:58:28.895Z,13.50
